sensor_id;sensor_type;location;lat;lon;timestamp;P1;durP1;ratioP1;P2;durP2;ratioP2
55879;SDS011;41802;51.564;-1.838;2023-02-27T00:01:21;7.63;;;1.83;;
55879;SDS011;41802;51.564;-1.838;2023-02-27T00:03:49;11.10;;;2.00;;
55879;SDS011;41802;51.564;-1.838;2023-02-27T00:06:17;7.10;;;1.92;;
55879;SDS011;41802;51.564;-1.838;2023-02-27T00:08:45;10.03;;;2.13;;
55879;SDS011;41802;51.564;-1.838;2023-02-27T00:11:13;11.50;;;2.78;;
55879;SDS011;41802;51.564;-1.838;2023-02-27T00:13:42;7.72;;;1.80;;
55879;SDS011;41802;51.564;-1.838;2023-02-27T00:16:10;6.03;;;1.60;;
55879;SDS011;41802;51.564;-1.838;2023-02-27T00:18:39;9.80;;;1.60;;
55879;SDS011;41802;51.564;-1.838;2023-02-27T00:21:07;7.40;;;2.03;;
55879;SDS011;41802;51.564;-1.838;2023-02-27T00:23:37;9.20;;;1.65;;
55879;SDS011;41802;51.564;-1.838;2023-02-27T00:26:06;7.40;;;1.80;;
55879;SDS011;41802;51.564;-1.838;2023-02-27T00:28:34;8.32;;;1.80;;
55879;SDS011;41802;51.564;-1.838;2023-02-27T00:31:03;6.60;;;1.80;;
55879;SDS011;41802;51.564;-1.838;2023-02-27T00:33:31;9.47;;;2.00;;
55879;SDS011;41802;51.564;-1.838;2023-02-27T00:35:59;6.30;;;1.50;;
55879;SDS011;41802;51.564;-1.838;2023-02-27T00:38:27;10.00;;;1.52;;
55879;SDS011;41802;51.564;-1.838;2023-02-27T00:40:55;6.43;;;1.38;;
55879;SDS011;41802;51.564;-1.838;2023-02-27T00:43:22;8.00;;;1.33;;
55879;SDS011;41802;51.564;-1.838;2023-02-27T00:45:50;8.57;;;1.60;;
55879;SDS011;41802;51.564;-1.838;2023-02-27T00:48:25;9.35;;;1.92;;
55879;SDS011;41802;51.564;-1.838;2023-02-27T00:50:52;12.35;;;1.75;;
55879;SDS011;41802;51.564;-1.838;2023-02-27T00:53:20;7.88;;;1.50;;
55879;SDS011;41802;51.564;-1.838;2023-02-27T00:55:48;6.30;;;1.60;;
55879;SDS011;41802;51.564;-1.838;2023-02-27T00:58:16;8.73;;;1.70;;
55879;SDS011;41802;51.564;-1.838;2023-02-27T01:00:43;5.55;;;1.33;;
55879;SDS011;41802;51.564;-1.838;2023-02-27T01:03:11;6.60;;;1.70;;
55879;SDS011;41802;51.564;-1.838;2023-02-27T01:05:40;6.63;;;1.48;;
55879;SDS011;41802;51.564;-1.838;2023-02-27T01:08:07;5.80;;;1.27;;
55879;SDS011;41802;51.564;-1.838;2023-02-27T01:10:35;7.47;;;1.70;;
55879;SDS011;41802;51.564;-1.838;2023-02-27T01:13:03;7.70;;;1.52;;
55879;SDS011;41802;51.564;-1.838;2023-02-27T01:15:31;5.78;;;1.40;;
55879;SDS011;41802;51.564;-1.838;2023-02-27T01:17:58;11.13;;;1.77;;
55879;SDS011;41802;51.564;-1.838;2023-02-27T01:20:26;7.75;;;1.90;;
55879;SDS011;41802;51.564;-1.838;2023-02-27T01:22:57;7.53;;;1.70;;
55879;SDS011;41802;51.564;-1.838;2023-02-27T01:25:25;7.43;;;1.60;;
55879;SDS011;41802;51.564;-1.838;2023-02-27T01:27:54;8.30;;;1.30;;
55879;SDS011;41802;51.564;-1.838;2023-02-27T01:30:21;6.50;;;1.75;;
55879;SDS011;41802;51.564;-1.838;2023-02-27T01:32:49;8.27;;;1.98;;
55879;SDS011;41802;51.564;-1.838;2023-02-27T01:35:17;6.13;;;1.63;;
55879;SDS011;41802;51.564;-1.838;2023-02-27T01:37:45;7.07;;;1.95;;
55879;SDS011;41802;51.564;-1.838;2023-02-27T01:40:14;7.88;;;2.00;;
55879;SDS011;41802;51.564;-1.838;2023-02-27T01:42:42;6.85;;;1.60;;
55879;SDS011;41802;51.564;-1.838;2023-02-27T01:47:41;7.67;;;1.23;;
55879;SDS011;41802;51.564;-1.838;2023-02-27T01:50:09;8.00;;;1.40;;
55879;SDS011;41802;51.564;-1.838;2023-02-27T01:52:37;6.28;;;1.48;;
55879;SDS011;41802;51.564;-1.838;2023-02-27T01:55:06;8.00;;;1.60;;
55879;SDS011;41802;51.564;-1.838;2023-02-27T01:57:35;7.45;;;1.75;;
55879;SDS011;41802;51.564;-1.838;2023-02-27T02:00:04;7.13;;;1.30;;
55879;SDS011;41802;51.564;-1.838;2023-02-27T02:02:33;7.50;;;1.67;;
55879;SDS011;41802;51.564;-1.838;2023-02-27T02:05:02;7.10;;;1.38;;
55879;SDS011;41802;51.564;-1.838;2023-02-27T02:07:30;7.22;;;1.38;;
55879;SDS011;41802;51.564;-1.838;2023-02-27T02:09:58;11.57;;;1.55;;
55879;SDS011;41802;51.564;-1.838;2023-02-27T02:12:27;7.10;;;1.50;;
55879;SDS011;41802;51.564;-1.838;2023-02-27T02:14:56;6.50;;;1.30;;
55879;SDS011;41802;51.564;-1.838;2023-02-27T02:17:25;5.95;;;1.38;;
55879;SDS011;41802;51.564;-1.838;2023-02-27T02:22:50;5.95;;;1.20;;
55879;SDS011;41802;51.564;-1.838;2023-02-27T02:25:37;8.60;;;1.37;;
55879;SDS011;41802;51.564;-1.838;2023-02-27T02:28:14;7.43;;;1.10;;
55879;SDS011;41802;51.564;-1.838;2023-02-27T02:33:45;6.13;;;0.95;;
55879;SDS011;41802;51.564;-1.838;2023-02-27T02:36:32;5.47;;;1.05;;
55879;SDS011;41802;51.564;-1.838;2023-02-27T02:39:15;7.47;;;1.00;;
55879;SDS011;41802;51.564;-1.838;2023-02-27T02:41:50;7.30;;;1.17;;
55879;SDS011;41802;51.564;-1.838;2023-02-27T02:44:23;6.55;;;1.30;;
55879;SDS011;41802;51.564;-1.838;2023-02-27T02:46:56;6.03;;;1.20;;
55879;SDS011;41802;51.564;-1.838;2023-02-27T02:49:29;7.03;;;1.10;;
55879;SDS011;41802;51.564;-1.838;2023-02-27T02:52:00;5.63;;;0.93;;
55879;SDS011;41802;51.564;-1.838;2023-02-27T02:54:32;6.20;;;1.05;;
55879;SDS011;41802;51.564;-1.838;2023-02-27T02:57:05;5.82;;;1.10;;
55879;SDS011;41802;51.564;-1.838;2023-02-27T02:59:43;7.07;;;1.00;;
55879;SDS011;41802;51.564;-1.838;2023-02-27T03:02:15;5.95;;;1.20;;
55879;SDS011;41802;51.564;-1.838;2023-02-27T03:04:44;6.07;;;0.80;;
55879;SDS011;41802;51.564;-1.838;2023-02-27T03:07:14;5.20;;;0.93;;
55879;SDS011;41802;51.564;-1.838;2023-02-27T03:09:45;3.75;;;0.90;;
55879;SDS011;41802;51.564;-1.838;2023-02-27T03:12:15;5.97;;;0.93;;
55879;SDS011;41802;51.564;-1.838;2023-02-27T03:14:45;5.40;;;0.77;;
55879;SDS011;41802;51.564;-1.838;2023-02-27T03:17:14;11.33;;;1.20;;
55879;SDS011;41802;51.564;-1.838;2023-02-27T03:19:45;6.63;;;0.90;;
55879;SDS011;41802;51.564;-1.838;2023-02-27T03:22:16;5.13;;;1.20;;
55879;SDS011;41802;51.564;-1.838;2023-02-27T03:24:47;11.57;;;1.05;;
55879;SDS011;41802;51.564;-1.838;2023-02-27T03:27:16;7.82;;;1.00;;
55879;SDS011;41802;51.564;-1.838;2023-02-27T03:29:46;5.93;;;1.03;;
55879;SDS011;41802;51.564;-1.838;2023-02-27T03:32:16;6.45;;;1.08;;
55879;SDS011;41802;51.564;-1.838;2023-02-27T03:34:45;8.65;;;1.50;;
55879;SDS011;41802;51.564;-1.838;2023-02-27T03:37:17;6.40;;;0.93;;
55879;SDS011;41802;51.564;-1.838;2023-02-27T03:39:48;10.13;;;1.50;;
55879;SDS011;41802;51.564;-1.838;2023-02-27T03:42:18;8.87;;;1.30;;
55879;SDS011;41802;51.564;-1.838;2023-02-27T03:44:51;6.18;;;1.50;;
55879;SDS011;41802;51.564;-1.838;2023-02-27T03:47:20;4.75;;;0.80;;
55879;SDS011;41802;51.564;-1.838;2023-02-27T03:49:49;7.13;;;1.00;;
55879;SDS011;41802;51.564;-1.838;2023-02-27T03:52:18;6.30;;;1.08;;
55879;SDS011;41802;51.564;-1.838;2023-02-27T03:54:48;8.63;;;1.40;;
55879;SDS011;41802;51.564;-1.838;2023-02-27T03:57:25;7.00;;;1.05;;
55879;SDS011;41802;51.564;-1.838;2023-02-27T03:59:53;8.27;;;1.00;;
55879;SDS011;41802;51.564;-1.838;2023-02-27T04:02:20;6.05;;;1.50;;
55879;SDS011;41802;51.564;-1.838;2023-02-27T04:04:48;4.78;;;1.17;;
55879;SDS011;41802;51.564;-1.838;2023-02-27T04:07:19;7.17;;;1.20;;
55879;SDS011;41802;51.564;-1.838;2023-02-27T04:10:02;7.43;;;1.40;;
55879;SDS011;41802;51.564;-1.838;2023-02-27T04:12:42;5.55;;;1.00;;
55879;SDS011;41802;51.564;-1.838;2023-02-27T04:15:13;6.10;;;1.52;;
55879;SDS011;41802;51.564;-1.838;2023-02-27T04:17:46;9.38;;;1.42;;
55879;SDS011;41802;51.564;-1.838;2023-02-27T04:20:30;7.67;;;1.60;;
55879;SDS011;41802;51.564;-1.838;2023-02-27T04:23:02;7.63;;;1.20;;
55879;SDS011;41802;51.564;-1.838;2023-02-27T04:25:38;8.80;;;1.27;;
55879;SDS011;41802;51.564;-1.838;2023-02-27T04:28:12;8.18;;;1.10;;
55879;SDS011;41802;51.564;-1.838;2023-02-27T04:30:47;6.25;;;1.10;;
55879;SDS011;41802;51.564;-1.838;2023-02-27T04:33:23;7.37;;;1.27;;
55879;SDS011;41802;51.564;-1.838;2023-02-27T04:35:52;7.13;;;1.20;;
55879;SDS011;41802;51.564;-1.838;2023-02-27T04:38:22;8.88;;;1.27;;
55879;SDS011;41802;51.564;-1.838;2023-02-27T04:40:55;6.55;;;1.25;;
55879;SDS011;41802;51.564;-1.838;2023-02-27T04:43:26;6.78;;;1.25;;
55879;SDS011;41802;51.564;-1.838;2023-02-27T04:45:55;6.50;;;1.30;;
55879;SDS011;41802;51.564;-1.838;2023-02-27T04:48:25;5.78;;;1.45;;
55879;SDS011;41802;51.564;-1.838;2023-02-27T04:50:54;9.90;;;1.52;;
55879;SDS011;41802;51.564;-1.838;2023-02-27T04:53:25;6.82;;;1.25;;
55879;SDS011;41802;51.564;-1.838;2023-02-27T04:55:56;7.40;;;1.52;;
55879;SDS011;41802;51.564;-1.838;2023-02-27T04:58:27;7.60;;;1.07;;
55879;SDS011;41802;51.564;-1.838;2023-02-27T05:00:56;10.77;;;1.55;;
55879;SDS011;41802;51.564;-1.838;2023-02-27T05:03:26;6.18;;;1.27;;
55879;SDS011;41802;51.564;-1.838;2023-02-27T05:05:56;6.57;;;1.67;;
55879;SDS011;41802;51.564;-1.838;2023-02-27T05:08:25;6.93;;;1.55;;
55879;SDS011;41802;51.564;-1.838;2023-02-27T05:10:57;6.70;;;1.30;;
55879;SDS011;41802;51.564;-1.838;2023-02-27T05:13:28;11.30;;;1.63;;
55879;SDS011;41802;51.564;-1.838;2023-02-27T05:15:57;7.40;;;1.65;;
55879;SDS011;41802;51.564;-1.838;2023-02-27T05:18:27;8.15;;;1.70;;
55879;SDS011;41802;51.564;-1.838;2023-02-27T05:20:55;10.85;;;1.67;;
55879;SDS011;41802;51.564;-1.838;2023-02-27T05:23:30;6.90;;;1.70;;
55879;SDS011;41802;51.564;-1.838;2023-02-27T05:26:00;11.68;;;2.00;;
55879;SDS011;41802;51.564;-1.838;2023-02-27T05:28:32;7.30;;;1.52;;
55879;SDS011;41802;51.564;-1.838;2023-02-27T05:31:02;6.30;;;1.83;;
55879;SDS011;41802;51.564;-1.838;2023-02-27T05:33:31;7.80;;;2.30;;
55879;SDS011;41802;51.564;-1.838;2023-02-27T05:36:02;15.33;;;2.57;;
55879;SDS011;41802;51.564;-1.838;2023-02-27T05:38:33;10.40;;;2.35;;
55879;SDS011;41802;51.564;-1.838;2023-02-27T05:41:04;6.45;;;1.70;;
55879;SDS011;41802;51.564;-1.838;2023-02-27T05:43:35;6.85;;;1.75;;
55879;SDS011;41802;51.564;-1.838;2023-02-27T05:46:06;7.80;;;2.00;;
55879;SDS011;41802;51.564;-1.838;2023-02-27T05:48:35;6.87;;;1.70;;
55879;SDS011;41802;51.564;-1.838;2023-02-27T05:51:04;6.97;;;1.60;;
55879;SDS011;41802;51.564;-1.838;2023-02-27T05:53:34;10.32;;;2.03;;
55879;SDS011;41802;51.564;-1.838;2023-02-27T05:56:05;7.90;;;1.83;;
55879;SDS011;41802;51.564;-1.838;2023-02-27T05:58:35;10.45;;;2.05;;
55879;SDS011;41802;51.564;-1.838;2023-02-27T06:01:09;10.93;;;2.10;;
55879;SDS011;41802;51.564;-1.838;2023-02-27T06:03:38;9.45;;;2.42;;
55879;SDS011;41802;51.564;-1.838;2023-02-27T06:06:07;8.27;;;2.95;;
55879;SDS011;41802;51.564;-1.838;2023-02-27T06:08:41;9.45;;;2.70;;
55879;SDS011;41802;51.564;-1.838;2023-02-27T06:11:10;8.02;;;3.13;;
55879;SDS011;41802;51.564;-1.838;2023-02-27T06:13:38;10.13;;;3.40;;
55879;SDS011;41802;51.564;-1.838;2023-02-27T06:16:08;8.10;;;3.10;;
55879;SDS011;41802;51.564;-1.838;2023-02-27T06:18:36;10.93;;;3.72;;
55879;SDS011;41802;51.564;-1.838;2023-02-27T06:21:04;13.77;;;3.17;;
55879;SDS011;41802;51.564;-1.838;2023-02-27T06:23:32;9.65;;;3.53;;
55879;SDS011;41802;51.564;-1.838;2023-02-27T06:25:59;12.03;;;3.40;;
55879;SDS011;41802;51.564;-1.838;2023-02-27T06:28:28;12.88;;;4.13;;
55879;SDS011;41802;51.564;-1.838;2023-02-27T06:30:56;9.15;;;3.35;;
55879;SDS011;41802;51.564;-1.838;2023-02-27T06:33:24;13.00;;;4.13;;
55879;SDS011;41802;51.564;-1.838;2023-02-27T06:35:52;16.30;;;4.47;;
55879;SDS011;41802;51.564;-1.838;2023-02-27T06:38:19;12.07;;;4.03;;
55879;SDS011;41802;51.564;-1.838;2023-02-27T06:40:47;10.98;;;4.35;;
55879;SDS011;41802;51.564;-1.838;2023-02-27T06:43:15;16.23;;;4.70;;
55879;SDS011;41802;51.564;-1.838;2023-02-27T06:45:48;12.02;;;3.95;;
55879;SDS011;41802;51.564;-1.838;2023-02-27T06:48:15;11.43;;;4.53;;
55879;SDS011;41802;51.564;-1.838;2023-02-27T06:50:49;10.67;;;4.27;;
55879;SDS011;41802;51.564;-1.838;2023-02-27T06:53:17;12.25;;;4.32;;
55879;SDS011;41802;51.564;-1.838;2023-02-27T06:55:45;14.02;;;4.53;;
55879;SDS011;41802;51.564;-1.838;2023-02-27T06:58:12;17.55;;;5.30;;
55879;SDS011;41802;51.564;-1.838;2023-02-27T07:00:40;13.80;;;4.97;;
55879;SDS011;41802;51.564;-1.838;2023-02-27T07:03:09;14.83;;;5.37;;
55879;SDS011;41802;51.564;-1.838;2023-02-27T07:05:39;20.15;;;5.20;;
55879;SDS011;41802;51.564;-1.838;2023-02-27T07:08:06;15.15;;;5.18;;
55879;SDS011;41802;51.564;-1.838;2023-02-27T07:10:34;16.48;;;5.90;;
55879;SDS011;41802;51.564;-1.838;2023-02-27T07:13:02;16.48;;;5.40;;
55879;SDS011;41802;51.564;-1.838;2023-02-27T07:15:29;15.53;;;6.30;;
55879;SDS011;41802;51.564;-1.838;2023-02-27T07:17:57;19.08;;;7.22;;
55879;SDS011;41802;51.564;-1.838;2023-02-27T07:20:26;22.40;;;6.43;;
55879;SDS011;41802;51.564;-1.838;2023-02-27T07:22:54;14.40;;;5.78;;
55879;SDS011;41802;51.564;-1.838;2023-02-27T07:25:22;21.75;;;6.47;;
55879;SDS011;41802;51.564;-1.838;2023-02-27T07:27:49;18.40;;;7.10;;
55879;SDS011;41802;51.564;-1.838;2023-02-27T07:30:17;13.32;;;6.18;;
55879;SDS011;41802;51.564;-1.838;2023-02-27T07:32:45;17.20;;;6.43;;
55879;SDS011;41802;51.564;-1.838;2023-02-27T07:35:13;19.38;;;6.25;;
55879;SDS011;41802;51.564;-1.838;2023-02-27T07:37:48;17.67;;;5.60;;
55879;SDS011;41802;51.564;-1.838;2023-02-27T07:40:16;16.23;;;6.33;;
55879;SDS011;41802;51.564;-1.838;2023-02-27T07:42:45;21.30;;;6.65;;
55879;SDS011;41802;51.564;-1.838;2023-02-27T07:45:13;13.85;;;5.88;;
55879;SDS011;41802;51.564;-1.838;2023-02-27T07:47:43;23.77;;;7.35;;
55879;SDS011;41802;51.564;-1.838;2023-02-27T07:50:11;18.15;;;6.00;;
55879;SDS011;41802;51.564;-1.838;2023-02-27T07:52:40;22.23;;;7.50;;
55879;SDS011;41802;51.564;-1.838;2023-02-27T07:55:11;17.58;;;6.82;;
55879;SDS011;41802;51.564;-1.838;2023-02-27T07:57:39;15.57;;;6.38;;
55879;SDS011;41802;51.564;-1.838;2023-02-27T08:00:07;18.70;;;6.55;;
55879;SDS011;41802;51.564;-1.838;2023-02-27T08:02:35;17.38;;;7.88;;
55879;SDS011;41802;51.564;-1.838;2023-02-27T08:05:03;18.60;;;7.47;;
55879;SDS011;41802;51.564;-1.838;2023-02-27T08:07:33;20.23;;;7.50;;
55879;SDS011;41802;51.564;-1.838;2023-02-27T08:10:02;20.08;;;6.90;;
55879;SDS011;41802;51.564;-1.838;2023-02-27T08:12:31;18.70;;;7.82;;
55879;SDS011;41802;51.564;-1.838;2023-02-27T08:14:58;17.15;;;6.97;;
55879;SDS011;41802;51.564;-1.838;2023-02-27T08:17:26;17.90;;;7.20;;
55879;SDS011;41802;51.564;-1.838;2023-02-27T08:19:54;20.08;;;6.82;;
55879;SDS011;41802;51.564;-1.838;2023-02-27T08:22:21;18.75;;;6.97;;
55879;SDS011;41802;51.564;-1.838;2023-02-27T08:24:49;27.33;;;7.03;;
55879;SDS011;41802;51.564;-1.838;2023-02-27T08:27:20;20.98;;;6.90;;
55879;SDS011;41802;51.564;-1.838;2023-02-27T08:29:49;22.97;;;8.50;;
55879;SDS011;41802;51.564;-1.838;2023-02-27T08:32:17;26.48;;;7.78;;
55879;SDS011;41802;51.564;-1.838;2023-02-27T08:34:45;18.02;;;7.57;;
55879;SDS011;41802;51.564;-1.838;2023-02-27T08:37:13;18.55;;;6.60;;
55879;SDS011;41802;51.564;-1.838;2023-02-27T08:39:41;19.88;;;7.95;;
55879;SDS011;41802;51.564;-1.838;2023-02-27T08:42:08;22.23;;;7.87;;
55879;SDS011;41802;51.564;-1.838;2023-02-27T08:44:36;16.27;;;6.93;;
55879;SDS011;41802;51.564;-1.838;2023-02-27T08:47:05;19.08;;;7.20;;
55879;SDS011;41802;51.564;-1.838;2023-02-27T08:49:33;18.08;;;6.55;;
55879;SDS011;41802;51.564;-1.838;2023-02-27T08:52:00;20.45;;;6.50;;
55879;SDS011;41802;51.564;-1.838;2023-02-27T08:54:29;15.07;;;7.07;;
55879;SDS011;41802;51.564;-1.838;2023-02-27T08:56:57;20.02;;;6.65;;
55879;SDS011;41802;51.564;-1.838;2023-02-27T08:59:28;19.52;;;7.10;;
55879;SDS011;41802;51.564;-1.838;2023-02-27T09:01:57;17.13;;;6.50;;
55879;SDS011;41802;51.564;-1.838;2023-02-27T09:04:26;17.08;;;5.78;;
55879;SDS011;41802;51.564;-1.838;2023-02-27T09:06:55;18.00;;;6.23;;
55879;SDS011;41802;51.564;-1.838;2023-02-27T09:09:22;19.10;;;5.82;;
55879;SDS011;41802;51.564;-1.838;2023-02-27T09:11:52;13.23;;;4.90;;
55879;SDS011;41802;51.564;-1.838;2023-02-27T09:14:22;15.70;;;5.93;;
55879;SDS011;41802;51.564;-1.838;2023-02-27T09:16:49;15.48;;;5.53;;
55879;SDS011;41802;51.564;-1.838;2023-02-27T09:19:17;15.03;;;5.23;;
55879;SDS011;41802;51.564;-1.838;2023-02-27T09:21:46;12.68;;;4.90;;
55879;SDS011;41802;51.564;-1.838;2023-02-27T09:24:13;17.17;;;5.38;;
55879;SDS011;41802;51.564;-1.838;2023-02-27T09:26:46;14.82;;;5.47;;
55879;SDS011;41802;51.564;-1.838;2023-02-27T09:29:14;13.13;;;5.05;;
55879;SDS011;41802;51.564;-1.838;2023-02-27T09:31:42;13.80;;;5.43;;
55879;SDS011;41802;51.564;-1.838;2023-02-27T09:34:10;12.70;;;5.00;;
55879;SDS011;41802;51.564;-1.838;2023-02-27T09:36:38;13.52;;;4.85;;
55879;SDS011;41802;51.564;-1.838;2023-02-27T09:39:07;15.35;;;4.78;;
55879;SDS011;41802;51.564;-1.838;2023-02-27T09:41:37;12.45;;;4.68;;
55879;SDS011;41802;51.564;-1.838;2023-02-27T09:44:12;12.17;;;4.50;;
55879;SDS011;41802;51.564;-1.838;2023-02-27T09:46:41;15.57;;;5.03;;
55879;SDS011;41802;51.564;-1.838;2023-02-27T09:49:11;13.75;;;4.75;;
55879;SDS011;41802;51.564;-1.838;2023-02-27T09:51:41;12.88;;;4.38;;
55879;SDS011;41802;51.564;-1.838;2023-02-27T09:54:12;12.93;;;5.30;;
55879;SDS011;41802;51.564;-1.838;2023-02-27T09:56:41;14.90;;;5.27;;
55879;SDS011;41802;51.564;-1.838;2023-02-27T09:59:12;11.27;;;4.10;;
55879;SDS011;41802;51.564;-1.838;2023-02-27T10:01:44;12.32;;;4.38;;
55879;SDS011;41802;51.564;-1.838;2023-02-27T10:04:23;14.40;;;4.70;;
55879;SDS011;41802;51.564;-1.838;2023-02-27T10:06:56;15.75;;;4.93;;
55879;SDS011;41802;51.564;-1.838;2023-02-27T10:09:31;13.10;;;4.73;;
55879;SDS011;41802;51.564;-1.838;2023-02-27T10:12:11;13.43;;;4.80;;
55879;SDS011;41802;51.564;-1.838;2023-02-27T10:14:41;12.07;;;5.13;;
55879;SDS011;41802;51.564;-1.838;2023-02-27T10:17:14;12.68;;;4.75;;
55879;SDS011;41802;51.564;-1.838;2023-02-27T10:19:44;11.20;;;3.78;;
55879;SDS011;41802;51.564;-1.838;2023-02-27T10:22:15;11.10;;;3.13;;
55879;SDS011;41802;51.564;-1.838;2023-02-27T10:24:45;11.85;;;3.17;;
55879;SDS011;41802;51.564;-1.838;2023-02-27T10:27:14;8.82;;;2.70;;
55879;SDS011;41802;51.564;-1.838;2023-02-27T10:29:46;8.65;;;2.45;;
55879;SDS011;41802;51.564;-1.838;2023-02-27T10:32:18;8.70;;;2.88;;
55879;SDS011;41802;51.564;-1.838;2023-02-27T10:34:48;8.67;;;2.57;;
55879;SDS011;41802;51.564;-1.838;2023-02-27T10:37:18;8.65;;;2.72;;
55879;SDS011;41802;51.564;-1.838;2023-02-27T10:39:48;10.55;;;2.70;;
55879;SDS011;41802;51.564;-1.838;2023-02-27T10:42:18;10.35;;;2.42;;
55879;SDS011;41802;51.564;-1.838;2023-02-27T10:44:47;8.63;;;2.65;;
55879;SDS011;41802;51.564;-1.838;2023-02-27T10:47:20;10.17;;;2.20;;
55879;SDS011;41802;51.564;-1.838;2023-02-27T10:49:48;8.25;;;2.38;;
55879;SDS011;41802;51.564;-1.838;2023-02-27T10:52:16;8.52;;;2.22;;
55879;SDS011;41802;51.564;-1.838;2023-02-27T10:54:44;8.27;;;2.40;;
55879;SDS011;41802;51.564;-1.838;2023-02-27T10:57:18;7.03;;;2.20;;
55879;SDS011;41802;51.564;-1.838;2023-02-27T10:59:50;8.90;;;2.13;;
55879;SDS011;41802;51.564;-1.838;2023-02-27T11:02:20;7.43;;;1.92;;
55879;SDS011;41802;51.564;-1.838;2023-02-27T11:04:49;7.18;;;1.83;;
55879;SDS011;41802;51.564;-1.838;2023-02-27T11:07:26;7.93;;;2.38;;
55879;SDS011;41802;51.564;-1.838;2023-02-27T11:09:58;6.63;;;1.83;;
55879;SDS011;41802;51.564;-1.838;2023-02-27T11:12:28;6.77;;;1.50;;
55879;SDS011;41802;51.564;-1.838;2023-02-27T11:14:56;5.50;;;1.30;;
55879;SDS011;41802;51.564;-1.838;2023-02-27T11:17:25;5.03;;;1.40;;
55879;SDS011;41802;51.564;-1.838;2023-02-27T11:19:57;4.38;;;1.02;;
55879;SDS011;41802;51.564;-1.838;2023-02-27T11:22:27;4.80;;;1.17;;
55879;SDS011;41802;51.564;-1.838;2023-02-27T11:25:13;4.43;;;1.10;;
55879;SDS011;41802;51.564;-1.838;2023-02-27T11:27:44;5.75;;;1.40;;
55879;SDS011;41802;51.564;-1.838;2023-02-27T11:30:19;6.53;;;1.65;;
55879;SDS011;41802;51.564;-1.838;2023-02-27T11:32:48;7.47;;;1.80;;
55879;SDS011;41802;51.564;-1.838;2023-02-27T11:35:18;6.45;;;1.35;;
55879;SDS011;41802;51.564;-1.838;2023-02-27T11:37:47;7.53;;;1.90;;
55879;SDS011;41802;51.564;-1.838;2023-02-27T11:40:18;5.78;;;1.27;;
55879;SDS011;41802;51.564;-1.838;2023-02-27T11:42:49;6.22;;;1.30;;
55879;SDS011;41802;51.564;-1.838;2023-02-27T11:45:23;4.97;;;1.15;;
55879;SDS011;41802;51.564;-1.838;2023-02-27T11:48:15;8.82;;;1.48;;
55879;SDS011;41802;51.564;-1.838;2023-02-27T11:50:52;7.93;;;1.93;;
55879;SDS011;41802;51.564;-1.838;2023-02-27T11:53:29;8.27;;;1.90;;
55879;SDS011;41802;51.564;-1.838;2023-02-27T11:56:12;4.95;;;1.45;;
55879;SDS011;41802;51.564;-1.838;2023-02-27T11:58:44;7.00;;;1.42;;
55879;SDS011;41802;51.564;-1.838;2023-02-27T12:01:17;5.78;;;1.60;;
55879;SDS011;41802;51.564;-1.838;2023-02-27T12:03:48;6.77;;;1.63;;
55879;SDS011;41802;51.564;-1.838;2023-02-27T12:06:18;6.10;;;1.20;;
55879;SDS011;41802;51.564;-1.838;2023-02-27T12:08:47;7.38;;;1.50;;
55879;SDS011;41802;51.564;-1.838;2023-02-27T12:11:19;6.35;;;1.35;;
55879;SDS011;41802;51.564;-1.838;2023-02-27T12:13:50;6.25;;;1.38;;
55879;SDS011;41802;51.564;-1.838;2023-02-27T12:16:20;4.77;;;1.03;;
55879;SDS011;41802;51.564;-1.838;2023-02-27T12:18:49;4.85;;;1.42;;
55879;SDS011;41802;51.564;-1.838;2023-02-27T12:21:20;6.90;;;1.17;;
55879;SDS011;41802;51.564;-1.838;2023-02-27T12:23:49;5.78;;;1.20;;
55879;SDS011;41802;51.564;-1.838;2023-02-27T12:26:20;5.80;;;1.13;;
55879;SDS011;41802;51.564;-1.838;2023-02-27T12:28:51;5.03;;;1.00;;
55879;SDS011;41802;51.564;-1.838;2023-02-27T12:31:29;7.75;;;0.88;;
55879;SDS011;41802;51.564;-1.838;2023-02-27T12:34:00;8.18;;;1.83;;
55879;SDS011;41802;51.564;-1.838;2023-02-27T12:36:28;6.45;;;1.10;;
55879;SDS011;41802;51.564;-1.838;2023-02-27T12:38:56;4.82;;;1.02;;
55879;SDS011;41802;51.564;-1.838;2023-02-27T12:41:30;4.53;;;1.40;;
55879;SDS011;41802;51.564;-1.838;2023-02-27T12:44:07;5.80;;;1.00;;
55879;SDS011;41802;51.564;-1.838;2023-02-27T12:46:40;7.20;;;1.23;;
55879;SDS011;41802;51.564;-1.838;2023-02-27T12:49:14;6.72;;;1.10;;
55879;SDS011;41802;51.564;-1.838;2023-02-27T12:51:48;5.97;;;1.00;;
55879;SDS011;41802;51.564;-1.838;2023-02-27T12:54:18;6.47;;;0.97;;
55879;SDS011;41802;51.564;-1.838;2023-02-27T12:56:53;4.13;;;0.80;;
55879;SDS011;41802;51.564;-1.838;2023-02-27T12:59:45;5.55;;;0.77;;
55879;SDS011;41802;51.564;-1.838;2023-02-27T13:04:59;4.97;;;1.10;;
55879;SDS011;41802;51.564;-1.838;2023-02-27T13:07:30;5.60;;;1.23;;
55879;SDS011;41802;51.564;-1.838;2023-02-27T13:10:01;5.32;;;1.20;;
55879;SDS011;41802;51.564;-1.838;2023-02-27T13:12:32;6.40;;;1.35;;
55879;SDS011;41802;51.564;-1.838;2023-02-27T13:15:02;5.15;;;0.90;;
55879;SDS011;41802;51.564;-1.838;2023-02-27T13:17:36;5.47;;;1.23;;
55879;SDS011;41802;51.564;-1.838;2023-02-27T13:20:10;5.10;;;1.00;;
55879;SDS011;41802;51.564;-1.838;2023-02-27T13:22:50;6.85;;;1.55;;
55879;SDS011;41802;51.564;-1.838;2023-02-27T13:25:20;5.50;;;1.13;;
55879;SDS011;41802;51.564;-1.838;2023-02-27T13:27:50;8.10;;;1.48;;
55879;SDS011;41802;51.564;-1.838;2023-02-27T13:30:23;7.70;;;1.17;;
55879;SDS011;41802;51.564;-1.838;2023-02-27T13:32:54;6.43;;;1.30;;
55879;SDS011;41802;51.564;-1.838;2023-02-27T13:35:26;6.00;;;1.10;;
55879;SDS011;41802;51.564;-1.838;2023-02-27T13:37:56;8.75;;;1.38;;
55879;SDS011;41802;51.564;-1.838;2023-02-27T13:42:56;6.25;;;0.80;;
55879;SDS011;41802;51.564;-1.838;2023-02-27T13:51:02;4.78;;;0.50;;
55879;SDS011;41802;51.564;-1.838;2023-02-27T13:53:30;5.13;;;0.65;;
55879;SDS011;41802;51.564;-1.838;2023-02-27T13:58:42;7.20;;;1.13;;
55879;SDS011;41802;51.564;-1.838;2023-02-27T14:01:14;3.55;;;0.60;;
55879;SDS011;41802;51.564;-1.838;2023-02-27T14:03:42;4.30;;;1.08;;
55879;SDS011;41802;51.564;-1.838;2023-02-27T14:06:20;5.88;;;1.05;;
55879;SDS011;41802;51.564;-1.838;2023-02-27T14:08:49;6.13;;;0.77;;
55879;SDS011;41802;51.564;-1.838;2023-02-27T14:11:25;4.60;;;1.13;;
55879;SDS011;41802;51.564;-1.838;2023-02-27T14:13:58;4.57;;;0.98;;
55879;SDS011;41802;51.564;-1.838;2023-02-27T14:25:15;4.77;;;0.90;;
55879;SDS011;41802;51.564;-1.838;2023-02-27T14:27:45;5.55;;;1.30;;
55879;SDS011;41802;51.564;-1.838;2023-02-27T14:30:31;6.40;;;1.10;;
55879;SDS011;41802;51.564;-1.838;2023-02-27T14:33:00;6.45;;;1.05;;
55879;SDS011;41802;51.564;-1.838;2023-02-27T14:35:33;4.38;;;1.00;;
55879;SDS011;41802;51.564;-1.838;2023-02-27T14:38:02;5.23;;;1.10;;
55879;SDS011;41802;51.564;-1.838;2023-02-27T14:40:38;7.28;;;0.90;;
55879;SDS011;41802;51.564;-1.838;2023-02-27T14:43:09;3.92;;;0.80;;
55879;SDS011;41802;51.564;-1.838;2023-02-27T14:45:40;6.85;;;1.05;;
55879;SDS011;41802;51.564;-1.838;2023-02-27T14:48:08;5.53;;;1.05;;
55879;SDS011;41802;51.564;-1.838;2023-02-27T14:50:42;4.87;;;1.10;;
55879;SDS011;41802;51.564;-1.838;2023-02-27T14:53:21;5.07;;;0.80;;
55879;SDS011;41802;51.564;-1.838;2023-02-27T14:55:54;7.38;;;1.27;;
55879;SDS011;41802;51.564;-1.838;2023-02-27T14:58:23;4.60;;;1.00;;
55879;SDS011;41802;51.564;-1.838;2023-02-27T15:00:56;4.30;;;0.90;;
55879;SDS011;41802;51.564;-1.838;2023-02-27T15:03:25;6.10;;;1.10;;
55879;SDS011;41802;51.564;-1.838;2023-02-27T15:05:56;6.80;;;0.77;;
55879;SDS011;41802;51.564;-1.838;2023-02-27T15:08:27;9.15;;;1.00;;
55879;SDS011;41802;51.564;-1.838;2023-02-27T15:10:58;5.00;;;0.98;;
55879;SDS011;41802;51.564;-1.838;2023-02-27T15:13:28;4.88;;;1.10;;
55879;SDS011;41802;51.564;-1.838;2023-02-27T15:18:44;5.20;;;1.35;;
55879;SDS011;41802;51.564;-1.838;2023-02-27T15:21:13;5.72;;;0.93;;
55879;SDS011;41802;51.564;-1.838;2023-02-27T15:23:41;4.60;;;0.85;;